Time;durP1;ratioP1;P1;durP2;ratioP2;P2;SDS_P1;SDS_P2;PMS_P1;PMS_P2;Temp;Humidity;BMP_temperature;BMP_pressure;BME280_temperature;BME280_humidity;BME280_pressure;Samples;Min_cycle;Max_cycle;Signal;HPM_P1;HPM_P2
2024/01/14 00:02:10;;;;;;;139.15;65.40;;;16.00;59.60;;;;;;4889615;28;90861;-81
2024/01/14 00:04:35;;;;;;;137.73;65.15;;;16.00;59.60;;;;;;4887646;28;90270;-81
2024/01/14 00:07:01;;;;;;;138.55;64.10;;;16.00;59.60;;;;;;4887232;28;92864;-81
2024/01/14 00:09:26;;;;;;;137.73;64.57;;;15.90;59.50;;;;;;4887519;28;91716;-81
2024/01/14 00:11:52;;;;;;;138.52;64.47;;;15.90;59.50;;;;;;4890125;28;89445;-81
2024/01/14 00:14:18;;;;;;;135.57;63.50;;;15.90;59.50;;;;;;4885275;28;89472;-81
2024/01/14 00:16:44;;;;;;;134.40;64.07;;;15.90;59.40;;;;;;4886633;28;89705;-81
2024/01/14 00:19:09;;;;;;;139.32;64.03;;;15.80;59.50;;;;;;4888682;28;89617;-81
2024/01/14 00:21:36;;;;;;;136.52;62.83;;;15.80;59.40;;;;;;4889085;28;90896;-81
2024/01/14 00:24:03;;;;;;;135.18;63.30;;;15.80;59.40;;;;;;4890252;28;90232;-81
2024/01/14 00:26:29;;;;;;;133.73;63.83;;;15.80;59.40;;;;;;4891238;28;89467;-80
2024/01/14 00:28:57;;;;;;;132.75;62.50;;;15.80;59.30;;;;;;4888055;28;89313;-81
2024/01/14 00:31:22;;;;;;;134.80;62.30;;;15.80;59.90;;;;;;4885386;28;90791;-81
2024/01/14 00:33:49;;;;;;;133.48;62.25;;;15.80;59.10;;;;;;4891604;28;89519;-81
2024/01/14 00:36:18;;;;;;;138.88;63.25;;;15.70;59.00;;;;;;4881112;28;89488;-80
2024/01/14 00:38:44;;;;;;;131.50;62.28;;;15.70;59.00;;;;;;4870143;28;89786;-76
2024/01/14 00:41:10;;;;;;;133.02;61.67;;;15.70;59.00;;;;;;4884653;28;89558;-77
2024/01/14 00:43:37;;;;;;;131.55;61.25;;;15.70;59.00;;;;;;4887445;28;90063;-77
2024/01/14 00:46:03;;;;;;;134.35;61.17;;;15.60;59.10;;;;;;4883292;28;90293;-76
2024/01/14 00:48:29;;;;;;;133.25;62.25;;;15.60;59.10;;;;;;4886716;28;89344;-77
2024/01/14 00:50:55;;;;;;;130.00;61.28;;;15.60;59.10;;;;;;4888205;28;89460;-77
2024/01/14 00:53:20;;;;;;;131.00;61.05;;;15.50;58.90;;;;;;4886155;28;89231;-77
2024/01/14 00:55:46;;;;;;;132.00;61.22;;;15.60;59.20;;;;;;4887354;28;89797;-76
2024/01/14 00:58:12;;;;;;;131.23;61.13;;;15.50;59.10;;;;;;4888020;28;89414;-77
2024/01/14 01:00:38;;;;;;;131.50;61.45;;;15.50;59.20;;;;;;4888030;28;90106;-77
2024/01/14 01:03:04;;;;;;;130.65;60.92;;;15.50;59.00;;;;;;4891390;28;89013;-76
2024/01/14 01:05:30;;;;;;;131.52;60.75;;;15.40;59.10;;;;;;4894131;28;89358;-77
2024/01/14 01:07:55;;;;;;;131.52;61.13;;;15.40;59.10;;;;;;4870559;28;89566;-78
2024/01/14 01:10:21;;;;;;;129.30;60.97;;;15.40;59.00;;;;;;4884224;28;92442;-80
2024/01/14 01:12:47;;;;;;;132.75;61.28;;;15.40;59.00;;;;;;4881934;28;91840;-80
2024/01/14 01:15:12;;;;;;;132.15;61.15;;;15.40;58.80;;;;;;4884112;28;89683;-80
2024/01/14 01:17:38;;;;;;;130.52;60.75;;;15.40;58.90;;;;;;4891080;28;90129;-80
2024/01/14 01:20:05;;;;;;;130.20;60.10;;;15.30;58.80;;;;;;4884899;28;89761;-79
2024/01/14 01:22:31;;;;;;;129.80;61.17;;;15.40;58.90;;;;;;4883272;28;89738;-78
2024/01/14 01:24:56;;;;;;;130.85;60.70;;;15.40;58.80;;;;;;4884706;28;89078;-79
2024/01/14 01:27:22;;;;;;;128.75;60.58;;;15.30;58.70;;;;;;4883857;28;90594;-79
2024/01/14 01:29:47;;;;;;;130.85;61.78;;;15.30;58.80;;;;;;4892890;28;90148;-79
2024/01/14 01:32:13;;;;;;;131.40;61.10;;;15.20;58.90;;;;;;4882693;28;89295;-80
2024/01/14 01:34:39;;;;;;;129.13;60.53;;;15.20;59.00;;;;;;4884119;28;90505;-79
2024/01/14 01:37:05;;;;;;;129.18;60.83;;;15.20;59.20;;;;;;4881150;28;90467;-80
2024/01/14 01:39:31;;;;;;;132.77;61.72;;;15.10;59.10;;;;;;4883059;28;90048;-77
2024/01/14 01:41:57;;;;;;;129.02;60.08;;;15.10;59.00;;;;;;4891916;28;89422;-79
2024/01/14 01:44:24;;;;;;;129.88;60.38;;;15.10;59.20;;;;;;4890936;28;90056;-79
2024/01/14 01:46:50;;;;;;;127.32;59.47;;;15.10;59.20;;;;;;4890721;28;88957;-79
2024/01/14 01:49:16;;;;;;;129.27;59.83;;;15.00;59.30;;;;;;4884933;28;90493;-80
2024/01/14 01:51:47;;;;;;;128.15;60.45;;;15.00;59.20;;;;;;4886770;28;89464;-80
2024/01/14 01:54:14;;;;;;;127.78;60.78;;;15.00;59.30;;;;;;4888416;28;89009;-80
2024/01/14 01:56:41;;;;;;;129.23;59.97;;;15.00;59.30;;;;;;4892071;28;89455;-79
2024/01/14 01:59:08;;;;;;;128.50;60.05;;;14.90;59.40;;;;;;4884779;28;90673;-81
2024/01/14 02:01:34;;;;;;;128.90;60.42;;;14.90;59.40;;;;;;4888772;28;90618;-80
2024/01/14 02:04:01;;;;;;;132.05;60.60;;;14.90;59.40;;;;;;4884215;28;88908;-80
2024/01/14 02:06:28;;;;;;;127.75;60.33;;;14.90;59.40;;;;;;4884600;28;89557;-79
2024/01/14 02:08:54;;;;;;;133.50;60.72;;;14.90;59.30;;;;;;4884362;28;89640;-79
2024/01/14 02:11:20;;;;;;;127.22;59.58;;;14.90;59.50;;;;;;4882530;28;94172;-79
2024/01/14 02:13:45;;;;;;;126.82;59.25;;;14.90;59.40;;;;;;4882583;28;90007;-81
2024/01/14 02:16:12;;;;;;;126.70;59.53;;;14.90;59.40;;;;;;4889307;28;88755;-79
2024/01/14 02:18:37;;;;;;;127.43;59.55;;;14.80;59.50;;;;;;4884074;28;90705;-79
2024/01/14 02:21:03;;;;;;;127.57;60.75;;;14.80;59.50;;;;;;4890839;28;89793;-79
2024/01/14 02:23:33;;;;;;;129.23;60.03;;;14.80;59.50;;;;;;4911541;28;89834;-80
2024/01/14 02:26:00;;;;;;;130.18;59.97;;;14.80;59.50;;;;;;4915507;28;88972;-80
2024/01/14 02:28:25;;;;;;;129.05;59.17;;;14.80;59.40;;;;;;4915575;28;89766;-80
2024/01/14 02:30:53;;;;;;;129.48;59.58;;;14.80;59.40;;;;;;4897494;28;89741;-79
2024/01/14 02:33:18;;;;;;;129.20;60.15;;;14.80;59.40;;;;;;4887987;28;89542;-80
2024/01/14 02:35:44;;;;;;;132.55;60.85;;;14.70;59.40;;;;;;4885980;28;89843;-80
2024/01/14 02:38:10;;;;;;;127.15;59.72;;;14.70;59.40;;;;;;4885268;28;90062;-81
2024/01/14 02:40:35;;;;;;;127.18;59.97;;;14.70;59.20;;;;;;4883787;28;90693;-80
2024/01/14 02:43:01;;;;;;;126.45;59.45;;;14.70;59.20;;;;;;4898129;28;89315;-80
2024/01/14 02:45:30;;;;;;;126.68;59.10;;;14.70;59.20;;;;;;4887796;28;89959;-81
2024/01/14 02:47:56;;;;;;;132.65;59.50;;;14.70;59.20;;;;;;4887487;28;91755;-81
2024/01/14 02:50:22;;;;;;;128.85;59.03;;;14.60;59.20;;;;;;4886447;28;90795;-80
2024/01/14 02:52:48;;;;;;;126.03;59.83;;;14.70;59.20;;;;;;4885216;28;89887;-81
2024/01/14 02:55:14;;;;;;;127.05;59.72;;;14.60;59.10;;;;;;4884553;28;91072;-80
2024/01/14 02:57:39;;;;;;;126.70;58.88;;;14.70;59.10;;;;;;4886454;28;89705;-80
2024/01/14 03:00:06;;;;;;;128.35;59.70;;;14.60;59.00;;;;;;4888480;28;90201;-80
2024/01/14 03:02:32;;;;;;;129.38;59.33;;;14.60;59.10;;;;;;4885749;28;89499;-80
2024/01/14 03:04:58;;;;;;;126.82;59.33;;;14.60;59.10;;;;;;4888050;28;89190;-80
2024/01/14 03:07:24;;;;;;;129.52;59.55;;;14.60;59.00;;;;;;4884243;28;93449;-80
2024/01/14 03:09:49;;;;;;;127.28;59.17;;;14.60;59.10;;;;;;4886852;28;89674;-80
2024/01/14 03:12:15;;;;;;;125.53;59.15;;;14.50;59.00;;;;;;4887549;28;90456;-80
2024/01/14 03:14:41;;;;;;;126.72;59.55;;;14.50;59.00;;;;;;4891332;28;89518;-80
2024/01/14 03:17:06;;;;;;;125.53;59.00;;;14.50;59.00;;;;;;4887502;28;90150;-81
2024/01/14 03:19:32;;;;;;;127.28;59.88;;;14.50;59.00;;;;;;4888233;28;93576;-81
2024/01/14 03:21:59;;;;;;;126.28;59.58;;;14.50;59.00;;;;;;4885894;28;90906;-80
2024/01/14 03:24:25;;;;;;;127.38;58.53;;;14.50;59.00;;;;;;4890443;28;89348;-86
2024/01/14 03:26:50;;;;;;;124.00;58.63;;;14.50;59.00;;;;;;4889402;28;90463;-84
2024/01/14 03:29:16;;;;;;;127.15;58.50;;;14.40;59.00;;;;;;4886592;28;92035;-85
2024/01/14 03:31:42;;;;;;;124.18;58.60;;;14.40;59.10;;;;;;4886163;28;89159;-84
2024/01/14 03:34:07;;;;;;;125.35;59.15;;;14.40;59.10;;;;;;4891559;28;89273;-88
2024/01/14 03:36:33;;;;;;;125.57;58.47;;;14.40;59.10;;;;;;4888834;28;90355;-84
2024/01/14 03:38:58;;;;;;;125.47;59.05;;;14.30;59.10;;;;;;4887305;28;89753;-86
2024/01/14 03:41:24;;;;;;;125.57;58.92;;;14.40;59.10;;;;;;4889698;28;89431;-88
2024/01/14 03:43:50;;;;;;;127.15;58.88;;;14.30;59.10;;;;;;4888544;28;89079;-85
2024/01/14 03:46:15;;;;;;;124.32;58.72;;;14.30;59.10;;;;;;4890360;28;89643;-84
2024/01/14 03:48:41;;;;;;;126.07;58.88;;;14.20;59.20;;;;;;4889813;28;89635;-87
2024/01/14 03:51:07;;;;;;;128.95;59.00;;;14.30;59.20;;;;;;4889747;28;89035;-86
2024/01/14 03:53:33;;;;;;;127.70;58.60;;;14.30;59.10;;;;;;4889959;28;90478;-85
2024/01/14 03:55:59;;;;;;;124.05;58.38;;;14.30;59.10;;;;;;4890823;28;92887;-82
2024/01/14 03:58:24;;;;;;;125.93;58.47;;;14.20;59.10;;;;;;4887581;28;91243;-76
2024/01/14 04:00:50;;;;;;;125.97;59.13;;;14.20;59.20;;;;;;4884324;28;90659;-76
2024/01/14 04:03:15;;;;;;;130.02;59.15;;;14.20;59.00;;;;;;4888970;28;89303;-76
2024/01/14 04:05:41;;;;;;;123.90;58.42;;;14.20;59.00;;;;;;4884106;28;92886;-76
2024/01/14 04:08:07;;;;;;;127.30;58.85;;;14.20;59.10;;;;;;4883723;28;89423;-76
2024/01/14 04:10:32;;;;;;;125.85;58.90;;;14.20;59.00;;;;;;4888979;28;89853;-76
2024/01/14 04:12:58;;;;;;;125.80;58.17;;;14.20;59.00;;;;;;4889218;28;89535;-76
2024/01/14 04:15:24;;;;;;;124.57;58.95;;;14.20;58.90;;;;;;4888232;28;89957;-76
2024/01/14 04:17:49;;;;;;;127.43;58.70;;;14.10;59.20;;;;;;4888369;28;89221;-77
2024/01/14 04:20:15;;;;;;;131.75;59.17;;;14.10;59.10;;;;;;4888104;28;89753;-76
2024/01/14 04:22:41;;;;;;;127.35;59.13;;;14.10;59.10;;;;;;4886788;28;89445;-77
2024/01/14 04:25:07;;;;;;;129.63;57.80;;;14.10;59.20;;;;;;4883945;28;93987;-75
2024/01/14 04:27:34;;;;;;;124.93;58.38;;;14.10;59.20;;;;;;4888901;28;91327;-76
2024/01/14 04:30:00;;;;;;;124.68;58.50;;;14.10;59.30;;;;;;4889138;28;90539;-75
2024/01/14 04:32:26;;;;;;;129.18;58.40;;;14.00;59.10;;;;;;4885264;28;90051;-76
2024/01/14 04:34:52;;;;;;;126.47;58.80;;;14.00;59.10;;;;;;4884976;28;93023;-75
2024/01/14 04:37:17;;;;;;;124.20;57.90;;;14.00;59.20;;;;;;4887256;28;89519;-77
2024/01/14 04:39:43;;;;;;;123.97;58.38;;;14.00;59.20;;;;;;4901033;28;90365;-76
2024/01/14 04:42:09;;;;;;;124.97;58.38;;;14.00;59.20;;;;;;4887281;28;88702;-76
2024/01/14 04:44:35;;;;;;;123.57;58.78;;;14.00;59.10;;;;;;4885774;28;90007;-88
2024/01/14 04:47:00;;;;;;;125.03;58.60;;;14.00;59.10;;;;;;4886911;28;90120;-83
2024/01/14 04:49:26;;;;;;;127.22;58.67;;;14.00;58.90;;;;;;4881258;28;89973;-82
2024/01/14 04:51:51;;;;;;;125.63;58.58;;;14.00;58.90;;;;;;4889925;28;89384;-85
2024/01/14 04:54:17;;;;;;;126.60;58.58;;;13.90;58.90;;;;;;4883752;28;89956;-84
2024/01/14 04:56:43;;;;;;;125.15;58.65;;;13.90;59.00;;;;;;4888572;28;89495;-84
2024/01/14 04:59:09;;;;;;;124.63;58.45;;;13.90;58.90;;;;;;4884180;28;90220;-78
2024/01/14 05:01:34;;;;;;;122.88;58.38;;;13.90;58.80;;;;;;4886951;28;89633;-79
2024/01/14 05:04:01;;;;;;;126.80;58.38;;;13.90;58.80;;;;;;4886439;28;92193;-78
2024/01/14 05:06:27;;;;;;;125.32;59.17;;;13.90;58.80;;;;;;4884160;28;89654;-78
2024/01/14 05:08:52;;;;;;;124.88;58.28;;;13.90;58.90;;;;;;4885119;28;89499;-78
2024/01/14 05:11:18;;;;;;;126.28;58.28;;;13.80;58.90;;;;;;4884333;28;89764;-78
2024/01/14 05:13:43;;;;;;;124.72;57.67;;;13.90;58.90;;;;;;4885742;28;90466;-78
2024/01/14 05:16:10;;;;;;;127.88;58.85;;;13.80;58.90;;;;;;4882158;28;90670;-78
2024/01/14 05:18:35;;;;;;;126.28;58.15;;;13.80;58.90;;;;;;4888232;28;89683;-78
2024/01/14 05:21:02;;;;;;;123.50;58.88;;;13.80;58.90;;;;;;4882643;28;90112;-78
2024/01/14 05:23:28;;;;;;;124.45;58.17;;;13.80;58.80;;;;;;4887627;28;90738;-79
2024/01/14 05:25:53;;;;;;;124.43;57.88;;;13.80;58.80;;;;;;4884905;28;90048;-78
2024/01/14 05:28:19;;;;;;;122.95;58.53;;;13.80;58.90;;;;;;4888414;28;89308;-78
2024/01/14 05:30:46;;;;;;;123.50;58.10;;;13.80;58.90;;;;;;4887967;28;89508;-78
2024/01/14 05:33:11;;;;;;;122.53;57.75;;;13.70;58.80;;;;;;4888267;28;89529;-78
2024/01/14 05:35:37;;;;;;;123.18;58.28;;;13.70;58.80;;;;;;4884485;28;89510;-78
2024/01/14 05:38:03;;;;;;;121.47;57.90;;;13.70;58.90;;;;;;4882584;28;90357;-77
2024/01/14 05:40:28;;;;;;;122.95;57.58;;;13.70;58.90;;;;;;4884845;28;89947;-78
2024/01/14 05:42:54;;;;;;;124.03;58.47;;;13.70;58.90;;;;;;4883829;28;89563;-78
2024/01/14 05:45:20;;;;;;;120.68;57.35;;;13.70;58.70;;;;;;4871094;28;93231;-84
2024/01/14 05:47:45;;;;;;;124.55;57.95;;;13.70;58.60;;;;;;4882631;28;89797;-87
2024/01/14 05:50:12;;;;;;;121.38;57.28;;;13.70;58.70;;;;;;4889440;28;89080;-90
2024/01/14 05:52:38;;;;;;;126.43;58.03;;;13.70;58.70;;;;;;4884839;28;89854;-85
2024/01/14 05:55:05;;;;;;;122.65;57.25;;;13.70;58.70;;;;;;4889678;28;89711;-87
2024/01/14 05:57:31;;;;;;;125.60;57.83;;;13.70;58.80;;;;;;4888173;28;88897;-89
2024/01/14 05:59:56;;;;;;;121.82;57.20;;;13.60;58.70;;;;;;4883864;28;89307;-80
2024/01/14 06:02:22;;;;;;;125.03;57.78;;;13.60;58.70;;;;;;4882339;28;90865;-80
2024/01/14 06:04:48;;;;;;;123.32;57.72;;;13.60;58.70;;;;;;4887662;28;90088;-79
2024/01/14 06:07:13;;;;;;;123.57;57.40;;;13.60;58.70;;;;;;4887754;28;90048;-79
2024/01/14 06:09:39;;;;;;;123.93;57.83;;;13.60;58.80;;;;;;4886826;28;90015;-80
2024/01/14 06:12:05;;;;;;;124.63;58.42;;;13.60;58.70;;;;;;4886496;28;93969;-80
2024/01/14 06:14:30;;;;;;;125.70;58.15;;;13.60;58.70;;;;;;4883987;28;92256;-79
2024/01/14 06:16:56;;;;;;;121.05;57.88;;;13.60;58.70;;;;;;4886112;28;89613;-80
2024/01/14 06:19:22;;;;;;;123.32;57.58;;;13.60;58.70;;;;;;4885856;28;89345;-79
2024/01/14 06:21:48;;;;;;;122.20;57.08;;;13.60;58.70;;;;;;4886573;28;90216;-79
2024/01/14 06:24:14;;;;;;;123.32;57.75;;;13.60;58.80;;;;;;4882304;28;93284;-80
2024/01/14 06:26:40;;;;;;;122.15;57.65;;;13.60;58.70;;;;;;4887677;28;91090;-80
2024/01/14 06:29:05;;;;;;;121.85;57.70;;;13.50;58.80;;;;;;4884564;28;89785;-79
2024/01/14 06:31:31;;;;;;;121.43;57.67;;;13.60;58.90;;;;;;4883127;28;93516;-80
2024/01/14 06:33:57;;;;;;;121.82;58.03;;;13.60;58.80;;;;;;4886928;28;89798;-80
2024/01/14 06:36:22;;;;;;;121.35;57.55;;;13.60;58.90;;;;;;4888389;28;89845;-80
2024/01/14 06:38:48;;;;;;;120.47;57.33;;;13.60;58.80;;;;;;4884876;28;90821;-81
2024/01/14 06:41:23;;;;;;;120.40;57.22;;;13.50;58.80;;;;;;4886630;28;89880;-81
2024/01/14 06:43:49;;;;;;;121.20;57.10;;;13.50;58.90;;;;;;4886833;28;93225;-81
2024/01/14 06:46:15;;;;;;;122.70;57.70;;;13.50;58.90;;;;;;4888805;28;89446;-81
2024/01/14 06:48:41;;;;;;;121.30;57.17;;;13.50;58.90;;;;;;4892170;28;89450;-81
2024/01/14 06:51:07;;;;;;;122.32;57.72;;;13.50;59.00;;;;;;4888279;28;94218;-80
2024/01/14 06:53:33;;;;;;;126.10;57.78;;;13.50;58.80;;;;;;4889203;28;95030;-80
2024/01/14 06:56:00;;;;;;;122.90;58.00;;;13.50;58.90;;;;;;4890880;28;89509;-80
2024/01/14 06:58:26;;;;;;;120.70;57.35;;;13.40;58.70;;;;;;4888095;28;89562;-80
2024/01/14 07:00:52;;;;;;;123.40;57.10;;;13.40;58.90;;;;;;4903470;28;93129;-80
2024/01/14 07:03:17;;;;;;;123.40;57.90;;;13.50;59.00;;;;;;4890878;28;89705;-80
2024/01/14 07:05:43;;;;;;;121.63;57.95;;;13.40;59.00;;;;;;4888427;28;90679;-81
2024/01/14 07:08:09;;;;;;;120.25;57.45;;;13.40;59.00;;;;;;4890523;28;88746;-81
2024/01/14 07:10:35;;;;;;;121.20;57.35;;;13.40;59.00;;;;;;4889007;28;93198;-81
2024/01/14 07:13:01;;;;;;;121.45;58.38;;;13.40;58.90;;;;;;4888848;28;89794;-81
2024/01/14 07:15:27;;;;;;;120.88;58.45;;;13.40;58.90;;;;;;4890358;28;91186;-85
2024/01/14 07:17:52;;;;;;;123.28;58.70;;;13.40;58.80;;;;;;4899296;28;89410;-85
2024/01/14 07:20:18;;;;;;;121.53;58.15;;;13.40;58.80;;;;;;4889787;28;91045;-79
2024/01/14 07:22:45;;;;;;;121.28;58.38;;;13.40;58.70;;;;;;4894747;28;90368;-84
2024/01/14 07:25:11;;;;;;;123.90;58.35;;;13.40;58.70;;;;;;4897976;28;89833;-87
2024/01/14 07:27:37;;;;;;;120.63;57.92;;;13.40;58.70;;;;;;4896268;28;89200;-87
2024/01/14 07:30:05;;;;;;;120.55;57.45;;;13.30;58.60;;;;;;4895096;28;89249;-88
2024/01/14 07:32:30;;;;;;;121.20;58.05;;;13.30;58.70;;;;;;4892546;28;94250;-87
2024/01/14 07:34:56;;;;;;;120.15;57.95;;;13.30;58.70;;;;;;4900832;28;89939;-87
2024/01/14 07:37:22;;;;;;;121.28;58.28;;;13.40;58.70;;;;;;4898179;28;88869;-89
2024/01/14 07:39:47;;;;;;;121.03;58.72;;;13.30;58.70;;;;;;4891347;28;90688;-86
2024/01/14 07:42:13;;;;;;;121.60;57.80;;;13.30;58.70;;;;;;4885588;28;92762;-86
2024/01/14 07:44:39;;;;;;;121.30;57.75;;;13.30;58.90;;;;;;4895068;28;89184;-86
2024/01/14 07:47:04;;;;;;;122.07;58.35;;;13.30;58.90;;;;;;4893754;28;89412;-83
2024/01/14 07:49:30;;;;;;;123.28;57.80;;;13.30;58.80;;;;;;4893447;28;89999;-86
2024/01/14 07:51:56;;;;;;;120.97;57.58;;;13.30;59.00;;;;;;4889388;28;89108;-87
2024/01/14 07:54:21;;;;;;;120.38;57.45;;;13.30;59.00;;;;;;4885067;28;89657;-86
2024/01/14 07:56:47;;;;;;;121.80;58.83;;;13.20;58.90;;;;;;4888151;28;88271;-84
2024/01/14 07:59:12;;;;;;;123.38;58.70;;;13.30;58.90;;;;;;4889573;28;90938;-84
2024/01/14 08:01:38;;;;;;;120.80;57.80;;;13.20;58.90;;;;;;4886227;28;89770;-83
2024/01/14 08:04:04;;;;;;;121.55;58.58;;;13.30;59.00;;;;;;4887865;28;91172;-81
2024/01/14 08:06:30;;;;;;;122.75;58.38;;;13.20;58.90;;;;;;4874519;28;89784;-77
2024/01/14 08:08:56;;;;;;;123.30;58.42;;;13.20;59.00;;;;;;4882993;28;89984;-77
2024/01/14 08:11:22;;;;;;;121.75;58.17;;;13.20;58.90;;;;;;4882525;28;90984;-78
2024/01/14 08:13:48;;;;;;;121.57;58.17;;;13.20;59.00;;;;;;4885943;28;89789;-77
2024/01/14 08:16:14;;;;;;;123.78;59.03;;;13.20;59.10;;;;;;4858513;28;91017;-78
2024/01/14 08:18:41;;;;;;;121.45;58.15;;;13.20;58.90;;;;;;4883596;28;90117;-78
2024/01/14 08:21:10;;;;;;;123.65;58.10;;;13.20;58.90;;;;;;4886032;28;89952;-76
2024/01/14 08:23:37;;;;;;;124.72;59.55;;;13.10;58.80;;;;;;4888553;28;89393;-77
2024/01/14 08:26:03;;;;;;;123.80;59.20;;;13.10;59.00;;;;;;4889957;28;89383;-78
2024/01/14 08:28:34;;;;;;;128.52;59.65;;;13.00;58.90;;;;;;4878769;28;93503;-79
2024/01/14 08:31:00;;;;;;;138.65;67.25;;;13.00;59.30;;;;;;4884988;28;89774;-79
2024/01/14 08:33:27;;;;;;;166.98;69.75;;;13.10;59.30;;;;;;4885703;28;89203;-83
2024/01/14 08:35:54;;;;;;;98.75;63.22;;;13.40;58.90;;;;;;4888544;28;90093;-82
2024/01/14 08:38:20;;;;;;;105.90;62.33;;;13.40;58.20;;;;;;4888035;28;91137;-81
2024/01/14 08:40:46;;;;;;;100.35;61.22;;;13.50;58.10;;;;;;4889468;28;88842;-82
2024/01/14 08:43:12;;;;;;;101.95;63.10;;;13.50;58.10;;;;;;4893111;28;88670;-83
2024/01/14 08:45:38;;;;;;;103.43;65.10;;;13.50;58.10;;;;;;4885677;28;89552;-81
2024/01/14 08:48:06;;;;;;;95.55;62.65;;;13.50;58.10;;;;;;4888088;28;89366;-81
2024/01/14 08:50:32;;;;;;;95.63;62.22;;;13.50;58.10;;;;;;4885348;28;92501;-81
2024/01/14 08:52:58;;;;;;;96.95;60.90;;;13.50;57.80;;;;;;4891187;28;89340;-80
2024/01/14 08:55:23;;;;;;;94.13;60.83;;;13.60;57.70;;;;;;4897261;28;89192;-79
2024/01/14 08:57:49;;;;;;;92.65;60.20;;;13.60;57.60;;;;;;4890112;28;90073;-80
2024/01/14 09:00:15;;;;;;;96.65;60.15;;;13.70;57.50;;;;;;4883652;28;92179;-80
2024/01/14 09:02:41;;;;;;;91.30;59.70;;;13.70;57.30;;;;;;4889217;28;88855;-81
2024/01/14 09:05:07;;;;;;;96.15;59.97;;;13.70;57.30;;;;;;4888585;28;89295;-82
2024/01/14 09:07:36;;;;;;;110.60;61.25;;;13.70;57.50;;;;;;4905711;28;92283;-82
2024/01/14 09:10:02;;;;;;;119.07;62.30;;;13.80;57.60;;;;;;4888966;28;89062;-82
2024/01/14 09:12:28;;;;;;;111.97;61.30;;;13.80;57.70;;;;;;4911123;28;88118;-82
2024/01/14 09:14:54;;;;;;;104.97;60.65;;;13.80;57.70;;;;;;4915686;28;88725;-80
2024/01/14 09:17:20;;;;;;;105.93;60.95;;;13.90;57.70;;;;;;4915069;28;90661;-78
2024/01/14 09:19:45;;;;;;;102.60;60.45;;;13.90;57.40;;;;;;4906325;28;93760;-79
2024/01/14 09:22:11;;;;;;;106.55;60.55;;;14.00;57.30;;;;;;4897499;28;88437;-83
2024/01/14 09:24:37;;;;;;;103.45;60.28;;;14.00;57.50;;;;;;4889910;28;88394;-83
2024/01/14 09:27:03;;;;;;;102.70;59.28;;;14.00;57.30;;;;;;4885439;28;89999;-82
2024/01/14 09:29:29;;;;;;;100.95;58.97;;;14.10;57.00;;;;;;4888247;28;89561;-82
2024/01/14 09:31:55;;;;;;;101.55;60.22;;;14.10;57.20;;;;;;4885254;28;89807;-80
2024/01/14 09:34:21;;;;;;;101.93;61.50;;;14.00;57.10;;;;;;4885954;28;88659;-82
2024/01/14 09:36:46;;;;;;;105.63;60.08;;;14.00;57.10;;;;;;4887660;28;89730;-83
2024/01/14 09:39:13;;;;;;;106.57;59.67;;;14.00;57.20;;;;;;4884138;28;92396;-83
2024/01/14 09:41:55;;;;;;;102.55;59.55;;;14.00;57.20;;;;;;4886604;28;90067;-82
2024/01/14 09:44:20;;;;;;;105.18;60.17;;;14.10;57.20;;;;;;4884779;28;89246;-78
2024/01/14 09:46:47;;;;;;;104.28;59.30;;;14.20;57.00;;;;;;4885720;28;89207;-78
2024/01/14 09:49:15;;;;;;;103.05;59.25;;;14.20;56.80;;;;;;4887849;28;89856;-78
2024/01/14 09:51:41;;;;;;;99.32;58.42;;;14.30;56.70;;;;;;4886343;28;89223;-78
2024/01/14 09:54:07;;;;;;;100.68;59.55;;;14.20;56.80;;;;;;4890517;28;89341;-78
2024/01/14 09:56:34;;;;;;;100.13;59.25;;;14.20;56.80;;;;;;4885810;28;89472;-78
2024/01/14 09:59:01;;;;;;;96.88;58.08;;;14.30;56.80;;;;;;4886970;28;91027;-77
2024/01/14 10:01:31;;;;;;;98.95;59.25;;;14.30;56.80;;;;;;4882599;28;89264;-79
2024/01/14 10:04:06;;;;;;;99.75;60.28;;;14.30;56.60;;;;;;4886350;28;89155;-78
2024/01/14 10:06:32;;;;;;;101.70;60.90;;;14.30;56.70;;;;;;4883352;28;90414;-79
2024/01/14 10:08:58;;;;;;;103.68;60.00;;;14.40;56.70;;;;;;4887427;28;92031;-78
2024/01/14 10:11:24;;;;;;;99.97;60.28;;;14.40;56.80;;;;;;4886623;28;89540;-78
2024/01/14 10:13:50;;;;;;;98.53;59.28;;;14.50;56.60;;;;;;4887758;28;90128;-78
2024/01/14 10:16:16;;;;;;;100.70;59.67;;;14.60;56.40;;;;;;4885849;28;90344;-79
2024/01/14 10:18:42;;;;;;;98.57;59.47;;;14.70;56.20;;;;;;4881993;28;93345;-79
2024/01/14 10:21:09;;;;;;;102.93;64.35;;;14.80;56.00;;;;;;4886225;28;89780;-77
2024/01/14 10:23:36;;;;;;;103.60;62.55;;;14.70;56.00;;;;;;4883901;28;88839;-79
2024/01/14 10:26:02;;;;;;;100.18;60.83;;;14.80;56.00;;;;;;4885511;28;89799;-78
2024/01/14 10:28:38;;;;;;;100.88;60.92;;;14.80;56.00;;;;;;4885123;28;91143;-79
2024/01/14 10:31:08;;;;;;;101.40;60.30;;;14.90;56.00;;;;;;4885070;28;90652;-79
2024/01/14 10:33:34;;;;;;;101.03;61.22;;;14.90;55.80;;;;;;4888548;28;89298;-78
2024/01/14 10:36:01;;;;;;;100.57;60.30;;;14.90;55.60;;;;;;4884082;28;89587;-78
2024/01/14 10:38:26;;;;;;;98.72;59.42;;;14.90;55.80;;;;;;4879766;28;90658;-78
2024/01/14 10:40:52;;;;;;;100.15;59.60;;;14.90;55.70;;;;;;4886496;28;89492;-79
2024/01/14 10:43:23;;;;;;;102.65;59.42;;;14.90;55.70;;;;;;4881571;28;90256;-78
2024/01/14 10:45:51;;;;;;;98.72;59.10;;;14.90;56.10;;;;;;4882965;28;90160;-77
2024/01/14 10:48:23;;;;;;;100.60;58.88;;;14.90;56.10;;;;;;4885932;28;89311;-78
2024/01/14 10:50:52;;;;;;;100.80;59.25;;;15.00;56.10;;;;;;4884805;28;89373;-78
2024/01/14 10:53:23;;;;;;;99.00;59.17;;;14.90;56.60;;;;;;4883993;28;89890;-79
2024/01/14 10:55:56;;;;;;;99.00;58.27;;;14.90;57.20;;;;;;4887081;28;90812;-78
2024/01/14 10:58:26;;;;;;;98.05;58.65;;;15.00;57.50;;;;;;4886778;28;90240;-78
2024/01/14 11:00:56;;;;;;;96.57;58.30;;;15.00;58.00;;;;;;4881910;28;89474;-78
2024/01/14 11:03:24;;;;;;;101.95;58.10;;;15.00;57.80;;;;;;4884453;28;89495;-78
2024/01/14 11:05:51;;;;;;;97.68;58.70;;;14.90;57.60;;;;;;4881946;28;91111;-77
2024/01/14 11:08:18;;;;;;;99.55;57.92;;;14.90;57.60;;;;;;4882536;28;89759;-78
2024/01/14 11:10:44;;;;;;;106.07;63.95;;;14.90;57.50;;;;;;4881881;28;89294;-78
2024/01/14 11:13:38;;;;;;;104.78;62.72;;;14.90;57.30;;;;;;4885916;28;88646;-78
2024/01/14 11:16:27;;;;;;;103.88;62.03;;;14.90;57.20;;;;;;4882939;28;89294;-79
2024/01/14 11:18:57;;;;;;;104.68;61.00;;;14.90;57.10;;;;;;4888944;28;90227;-78
2024/01/14 11:21:48;;;;;;;101.50;60.60;;;15.00;56.90;;;;;;4877174;28;91050;-77
2024/01/14 11:24:14;;;;;;;102.75;59.95;;;15.00;56.80;;;;;;4880902;28;90157;-79
2024/01/14 11:26:39;;;;;;;103.68;59.53;;;15.10;56.70;;;;;;4881566;28;89388;-80
2024/01/14 11:29:05;;;;;;;101.85;59.20;;;15.10;56.80;;;;;;4882504;28;90649;-79
2024/01/14 11:32:02;;;;;;;104.18;59.47;;;15.20;56.40;;;;;;4885346;28;89556;-79
2024/01/14 11:34:46;;;;;;;103.95;59.22;;;15.30;56.40;;;;;;4864612;28;89754;-79
2024/01/14 11:37:32;;;;;;;101.70;58.90;;;15.40;56.20;;;;;;4889254;28;90301;-79
2024/01/14 11:40:11;;;;;;;101.13;58.00;;;15.40;56.10;;;;;;4887960;28;89841;-79
2024/01/14 11:42:52;;;;;;;100.20;58.03;;;15.50;56.00;;;;;;4885932;28;89260;-79
2024/01/14 11:45:24;;;;;;;101.35;57.90;;;15.60;55.80;;;;;;4887940;28;89052;-79
2024/01/14 11:47:51;;;;;;;101.72;58.17;;;15.60;55.80;;;;;;4881789;28;90687;-79
2024/01/14 11:50:18;;;;;;;101.22;59.25;;;15.60;55.60;;;;;;4885684;28;89839;-79
2024/01/14 11:52:45;;;;;;;99.38;57.95;;;15.60;55.90;;;;;;4867239;28;89628;-79
2024/01/14 11:55:14;;;;;;;99.63;57.97;;;15.60;55.80;;;;;;4890393;28;90620;-81
2024/01/14 11:57:40;;;;;;;102.03;57.78;;;15.60;55.60;;;;;;4886859;28;89701;-78
2024/01/14 12:00:07;;;;;;;100.43;57.30;;;15.70;55.70;;;;;;4882457;28;93317;-80
2024/01/14 12:02:33;;;;;;;100.72;59.05;;;15.70;55.60;;;;;;4884425;28;89108;-79
2024/01/14 12:05:21;;;;;;;103.72;60.03;;;15.70;55.50;;;;;;4889932;28;90420;-79
2024/01/14 12:07:48;;;;;;;103.85;59.58;;;15.70;55.40;;;;;;4890019;28;90083;-79
2024/01/14 12:10:20;;;;;;;102.55;58.92;;;15.70;55.50;;;;;;4902208;28;90914;-80
2024/01/14 12:12:46;;;;;;;101.53;59.17;;;15.70;55.50;;;;;;4912808;28;90957;-78
2024/01/14 12:15:14;;;;;;;100.50;59.03;;;15.70;55.30;;;;;;4888549;28;89764;-79
2024/01/14 12:17:39;;;;;;;103.07;59.15;;;15.80;55.30;;;;;;4891591;28;90623;-80